createdAt,value
2018-04-27T00:02:16.984Z,7.18
2018-04-27T00:04:45.229Z,7.10
2018-04-27T00:07:13.473Z,7.13
2018-04-27T00:09:42.485Z,7.08
2018-04-27T00:12:11.499Z,6.95
2018-04-27T00:14:39.746Z,6.89
2018-04-27T00:17:08.761Z,6.92
2018-04-27T00:19:37.005Z,6.84
2018-04-27T00:22:06.025Z,6.85
2018-04-27T00:24:34.276Z,6.84
2018-04-27T00:27:03.293Z,6.77
2018-04-27T00:29:31.537Z,6.89
2018-04-27T00:31:59.791Z,6.90
2018-04-27T00:34:28.085Z,6.88
2018-04-27T00:36:56.277Z,6.82
2018-04-27T00:39:25.308Z,6.78
2018-04-27T00:41:53.557Z,6.81
2018-04-27T00:44:21.797Z,6.88
2018-04-27T00:46:50.057Z,6.77
2018-04-27T00:49:18.304Z,6.68
2018-04-27T00:51:46.546Z,6.92
2018-04-27T00:54:15.561Z,6.99
2018-04-27T00:56:43.802Z,6.91
2018-04-27T00:59:12.824Z,6.82
2018-04-27T01:01:41.069Z,6.71
2018-04-27T01:04:09.319Z,6.54
2018-04-27T01:06:37.569Z,6.46
2018-04-27T01:09:05.818Z,6.44
2018-04-27T01:11:34.072Z,6.46
2018-04-27T01:14:02.325Z,6.48
2018-04-27T01:16:30.563Z,6.55
2018-04-27T01:18:58.813Z,6.58
2018-04-27T01:21:27.064Z,6.49
2018-04-27T01:23:55.312Z,6.42
2018-04-27T01:26:23.562Z,6.39
2018-04-27T01:28:51.808Z,6.32
2018-04-27T01:31:20.820Z,6.31
2018-04-27T01:33:49.069Z,6.25
2018-04-27T01:36:18.078Z,6.29
2018-04-27T01:38:47.102Z,6.32
2018-04-27T01:41:15.341Z,6.22
2018-04-27T01:43:44.364Z,6.27
2018-04-27T01:46:12.622Z,6.26
2018-04-27T01:48:40.905Z,6.24
2018-04-27T01:51:09.150Z,6.26
2018-04-27T01:53:37.407Z,6.19
2018-04-27T01:56:05.649Z,6.05
2018-04-27T01:58:33.902Z,5.94
2018-04-27T02:01:02.152Z,5.88
2018-04-27T02:03:31.168Z,5.84
2018-04-27T02:05:59.417Z,5.83
2018-04-27T02:08:28.428Z,5.90
2018-04-27T02:10:56.688Z,5.99
2018-04-27T02:13:24.941Z,6.03
2018-04-27T02:15:53.190Z,5.95
2018-04-27T02:18:21.433Z,5.74
2018-04-27T02:20:50.448Z,5.71
2018-04-27T02:23:18.686Z,5.63
2018-04-27T02:25:47.705Z,5.64
2018-04-27T02:28:15.960Z,5.52
2018-04-27T02:30:44.981Z,5.50
2018-04-27T02:33:13.232Z,5.50
2018-04-27T02:35:42.254Z,5.59
2018-04-27T02:38:10.504Z,5.57
2018-04-27T02:40:38.768Z,5.49
2018-04-27T02:43:07.798Z,5.35
2018-04-27T02:45:36.066Z,5.38
2018-04-27T02:48:04.317Z,5.41
2018-04-27T02:50:33.339Z,5.32
2018-04-27T02:53:01.602Z,5.30
2018-04-27T02:55:29.854Z,5.30
2018-04-27T02:57:58.873Z,5.11
2018-04-27T03:00:27.129Z,5.05
2018-04-27T03:02:56.149Z,5.02
2018-04-27T03:05:24.408Z,4.98
2018-04-27T03:07:52.661Z,5.07
2018-04-27T03:10:21.669Z,5.02
2018-04-27T03:12:50.685Z,5.00
2018-04-27T03:15:18.934Z,4.93
2018-04-27T03:17:47.953Z,5.00
2018-04-27T03:20:16.201Z,4.98
2018-04-27T03:22:45.228Z,4.88
2018-04-27T03:25:13.478Z,4.91
2018-04-27T03:27:42.498Z,4.84
2018-04-27T03:30:10.756Z,4.83
2018-04-27T03:32:39.004Z,4.85
2018-04-27T03:35:08.017Z,4.91
2018-04-27T03:37:36.280Z,4.87
2018-04-27T03:40:05.301Z,4.80
2018-04-27T03:42:33.556Z,4.77
2018-04-27T03:45:02.574Z,4.70
2018-04-27T03:47:30.825Z,4.61
2018-04-27T03:49:59.845Z,4.62
2018-04-27T03:52:28.115Z,4.65
2018-04-27T03:54:56.377Z,4.67
2018-04-27T03:57:24.642Z,4.59
2018-04-27T04:00:11.280Z,4.70
2018-04-27T04:02:57.510Z,4.74
2018-04-27T04:05:29.280Z,4.75
2018-04-27T04:07:57.527Z,4.78
2018-04-27T04:10:25.785Z,4.87
2018-04-27T04:12:54.030Z,4.89
2018-04-27T04:15:23.048Z,5.01
2018-04-27T04:17:51.291Z,5.08
2018-04-27T04:20:20.305Z,5.06
2018-04-27T04:22:48.541Z,5.10
2018-04-27T04:25:17.560Z,5.09
2018-04-27T04:27:46.572Z,5.10
2018-04-27T04:30:14.828Z,5.13
2018-04-27T04:32:43.840Z,5.31
2018-04-27T04:35:12.097Z,5.34
2018-04-27T04:37:41.113Z,5.36
2018-04-27T04:40:09.363Z,5.42
2018-04-27T04:42:38.370Z,5.53
2018-04-27T04:45:06.712Z,5.52
2018-04-27T04:47:35.644Z,5.59
2018-04-27T04:50:03.904Z,5.47
2018-04-27T04:52:32.930Z,5.47
2018-04-27T04:55:01.186Z,5.47
2018-04-27T04:57:29.446Z,5.09
2018-04-27T04:59:58.460Z,4.92
2018-04-27T05:02:26.740Z,4.98
2018-04-27T05:04:54.972Z,4.80
2018-04-27T05:07:23.221Z,4.83
2018-04-27T05:09:51.465Z,4.93
2018-04-27T05:12:19.737Z,5.00
2018-04-27T05:14:47.981Z,5.01
2018-04-27T05:17:16.233Z,4.98
2018-04-27T05:19:44.485Z,5.09
2018-04-27T05:22:12.735Z,5.18
2018-04-27T05:24:40.985Z,5.31
2018-04-27T05:27:10.010Z,5.26
2018-04-27T05:29:38.324Z,5.21
2018-04-27T05:32:07.277Z,5.35
2018-04-27T05:34:35.520Z,5.53
2018-04-27T05:37:04.539Z,5.63
2018-04-27T05:39:32.785Z,5.64
2018-04-27T05:42:01.032Z,5.81
2018-04-27T05:44:29.278Z,5.99
2018-04-27T05:46:57.542Z,6.02
2018-04-27T05:49:25.795Z,6.32
2018-04-27T05:51:54.817Z,6.42
2018-04-27T05:54:23.062Z,6.53
2018-04-27T05:56:52.067Z,6.66
2018-04-27T05:59:21.092Z,6.81
2018-04-27T06:01:49.360Z,6.88
2018-04-27T06:04:17.612Z,6.69
2018-04-27T06:06:46.621Z,6.80
2018-04-27T06:09:14.880Z,6.72
2018-04-27T06:11:43.884Z,6.95
2018-04-27T06:14:12.137Z,7.02
2018-04-27T06:16:41.153Z,7.17
2018-04-27T06:19:09.409Z,7.48
2018-04-27T06:21:38.420Z,7.75
2018-04-27T06:24:06.672Z,7.71
2018-04-27T06:26:35.677Z,7.83
2018-04-27T06:29:04.697Z,7.99
2018-04-27T06:31:32.944Z,7.93
2018-04-27T06:34:01.960Z,8.15
2018-04-27T06:36:30.211Z,8.15
2018-04-27T06:38:59.221Z,8.27
2018-04-27T06:41:27.461Z,8.22
2018-04-27T06:43:55.708Z,8.32
2018-04-27T06:46:23.954Z,8.59
2018-04-27T06:48:52.205Z,8.96
2018-04-27T06:51:21.213Z,9.09
2018-04-27T06:53:49.465Z,8.89
2018-04-27T06:56:17.705Z,9.17
2018-04-27T06:58:45.953Z,9.28
2018-04-27T07:01:14.218Z,9.73
2018-04-27T07:03:42.462Z,9.85
2018-04-27T07:06:10.705Z,9.75
2018-04-27T07:08:38.954Z,9.35
2018-04-27T07:11:07.204Z,9.71
2018-04-27T07:13:36.216Z,9.80
2018-04-27T07:16:04.465Z,9.89
2018-04-27T07:18:33.473Z,10.16
2018-04-27T07:21:01.737Z,10.27
2018-04-27T07:23:29.986Z,10.47
2018-04-27T07:25:58.273Z,10.73
2018-04-27T07:28:26.501Z,10.52
2018-04-27T07:30:54.758Z,10.61
2018-04-27T07:33:23.013Z,10.84
2018-04-27T07:35:52.033Z,10.90
2018-04-27T07:38:20.280Z,11.08
2018-04-27T07:40:49.301Z,11.34
2018-04-27T07:43:17.556Z,11.56
2018-04-27T07:45:46.577Z,11.68
2018-04-27T07:48:14.841Z,11.60
2018-04-27T07:50:43.097Z,11.26
2018-04-27T07:53:12.113Z,11.59
2018-04-27T07:55:40.370Z,11.73
2018-04-27T07:58:09.396Z,11.83
2018-04-27T08:00:37.678Z,11.86
2018-04-27T08:03:05.940Z,12.14
2018-04-27T08:05:34.201Z,11.94
2018-04-27T08:08:02.461Z,11.85
2018-04-27T08:10:31.494Z,11.80
2018-04-27T08:12:59.753Z,11.74
2018-04-27T08:15:28.002Z,12.18
2018-04-27T08:17:57.037Z,12.38
2018-04-27T08:20:29.929Z,12.61
2018-04-27T08:22:58.903Z,12.88
2018-04-27T08:25:30.720Z,12.90
2018-04-27T08:27:58.985Z,13.11
2018-04-27T08:30:27.233Z,13.24
2018-04-27T08:32:55.498Z,13.24
2018-04-27T08:35:23.748Z,13.33
2018-04-27T08:37:52.002Z,12.85
2018-04-27T08:40:21.028Z,13.21
2018-04-27T08:42:49.281Z,13.72
2018-04-27T08:45:18.312Z,13.90
2018-04-27T08:47:46.562Z,13.79
2018-04-27T08:50:14.813Z,13.54
2018-04-27T08:52:43.842Z,13.46
2018-04-27T08:55:12.106Z,13.92
2018-04-27T08:57:40.366Z,13.98
2018-04-27T09:00:08.626Z,14.19
2018-04-27T09:02:36.882Z,14.39
2018-04-27T09:05:05.148Z,14.55
2018-04-27T09:07:33.399Z,13.82
2018-04-27T09:10:01.672Z,14.41
2018-04-27T09:12:29.929Z,14.39
2018-04-27T09:14:58.189Z,14.14
2018-04-27T09:17:27.211Z,14.04
2018-04-27T09:19:55.469Z,14.44
2018-04-27T09:22:24.494Z,14.41
2018-04-27T09:24:52.749Z,14.97
2018-04-27T09:27:21.006Z,14.32
2018-04-27T09:29:49.264Z,14.47
2018-04-27T09:32:17.589Z,14.68
2018-04-27T09:34:45.774Z,14.10
2018-04-27T09:37:14.032Z,14.82
2018-04-27T09:39:42.303Z,15.31
2018-04-27T09:42:10.557Z,15.29
2018-04-27T09:44:38.879Z,15.38
2018-04-27T09:47:07.142Z,14.76
2018-04-27T09:49:35.393Z,14.81
2018-04-27T09:52:03.659Z,15.12
2018-04-27T09:54:31.908Z,15.50
2018-04-27T09:57:00.216Z,15.56
2018-04-27T09:59:29.229Z,15.33
2018-04-27T10:01:57.485Z,15.47
2018-04-27T10:04:26.498Z,16.20
2018-04-27T10:06:54.762Z,15.53
2018-04-27T10:09:23.781Z,15.11
2018-04-27T10:11:52.041Z,15.73
2018-04-27T10:14:20.293Z,15.68
2018-04-27T10:16:48.549Z,15.49
2018-04-27T10:19:16.810Z,15.74
2018-04-27T10:21:45.062Z,16.12
2018-04-27T10:24:13.311Z,16.62
2018-04-27T10:26:42.327Z,16.77
2018-04-27T10:29:10.579Z,16.40
2018-04-27T10:31:39.611Z,16.30
2018-04-27T10:34:07.862Z,15.88
2018-04-27T10:36:36.165Z,15.81
2018-04-27T10:39:05.166Z,15.90
2018-04-27T10:41:33.425Z,16.38
2018-04-27T10:44:01.682Z,16.39
2018-04-27T10:46:29.930Z,16.41
2018-04-27T10:48:58.952Z,16.09
2018-04-27T10:51:27.197Z,16.17
2018-04-27T10:53:56.225Z,16.36
2018-04-27T10:56:24.477Z,16.69
2018-04-27T10:58:52.736Z,16.64
2018-04-27T11:01:20.999Z,16.39
2018-04-27T11:03:49.247Z,17.17
2018-04-27T11:06:17.496Z,17.40
2018-04-27T11:08:45.763Z,17.54
2018-04-27T11:11:14.013Z,17.74
2018-04-27T11:13:42.269Z,17.53
2018-04-27T11:16:10.566Z,17.46
2018-04-27T11:18:38.782Z,17.37
2018-04-27T11:21:07.025Z,17.48
2018-04-27T11:23:36.060Z,17.66
2018-04-27T11:26:04.354Z,18.14
2018-04-27T11:28:33.332Z,17.96
2018-04-27T11:31:01.581Z,17.51
2018-04-27T11:33:29.836Z,18.28
2018-04-27T11:35:58.863Z,18.24
2018-04-27T11:38:27.116Z,18.78
2018-04-27T11:40:55.377Z,19.17
2018-04-27T11:43:23.635Z,19.18
2018-04-27T11:45:51.894Z,18.64
2018-04-27T11:48:20.146Z,19.22
2018-04-27T11:50:48.401Z,18.24
2018-04-27T11:53:16.728Z,18.90
2018-04-27T11:55:44.913Z,19.15
2018-04-27T11:58:13.164Z,20.41
2018-04-27T12:00:41.428Z,20.23
2018-04-27T12:03:09.677Z,18.71
2018-04-27T12:05:38.697Z,19.79
2018-04-27T12:08:06.953Z,20.05
2018-04-27T12:10:35.273Z,20.39
2018-04-27T12:13:04.237Z,20.80
2018-04-27T12:15:32.492Z,20.17
2018-04-27T12:18:00.737Z,19.54
2018-04-27T12:20:28.993Z,20.35
2018-04-27T12:22:57.249Z,20.94
2018-04-27T12:25:25.505Z,19.95
2018-04-27T12:27:53.782Z,19.80
2018-04-27T12:30:22.030Z,20.28
2018-04-27T12:32:51.049Z,20.31
2018-04-27T12:35:19.300Z,20.78
2018-04-27T12:37:48.313Z,21.69
2018-04-27T12:40:16.582Z,22.10
2018-04-27T12:42:44.833Z,21.90
2018-04-27T12:45:13.084Z,20.51
2018-04-27T12:47:41.338Z,21.89
2018-04-27T12:50:09.589Z,20.70
2018-04-27T12:52:37.850Z,21.02
2018-04-27T12:55:06.869Z,22.36
2018-04-27T12:57:35.121Z,20.82
2018-04-27T13:00:04.137Z,20.20
2018-04-27T13:02:32.395Z,21.14
2018-04-27T13:05:00.640Z,20.86
2018-04-27T13:07:28.901Z,20.64
2018-04-27T13:09:57.150Z,21.99
2018-04-27T13:12:25.409Z,22.70
2018-04-27T13:14:53.653Z,21.87
2018-04-27T13:17:22.674Z,22.94
2018-04-27T13:19:50.921Z,21.29
2018-04-27T13:22:19.173Z,21.54
2018-04-27T13:24:47.425Z,21.33
2018-04-27T13:27:15.678Z,20.74
2018-04-27T13:29:43.922Z,21.04
2018-04-27T13:32:12.958Z,21.24
2018-04-27T13:34:41.209Z,21.43
2018-04-27T13:37:10.219Z,21.66
2018-04-27T13:39:38.473Z,21.52
2018-04-27T13:42:07.496Z,21.56
2018-04-27T13:44:35.749Z,21.56
2018-04-27T13:47:03.996Z,21.52
2018-04-27T13:49:32.293Z,21.58
2018-04-27T13:52:01.309Z,21.93
2018-04-27T13:54:29.563Z,21.83
2018-04-27T13:56:58.572Z,22.01
2018-04-27T13:59:26.829Z,22.22
2018-04-27T14:01:55.854Z,21.99
2018-04-27T14:04:24.116Z,22.83
2018-04-27T14:06:52.366Z,22.39
2018-04-27T14:09:21.389Z,22.93
2018-04-27T14:11:49.635Z,22.44
2018-04-27T14:14:18.652Z,22.74
2018-04-27T14:16:46.902Z,22.05
2018-04-27T14:19:15.930Z,22.41
2018-04-27T14:21:44.174Z,22.37
2018-04-27T14:24:13.189Z,23.08
2018-04-27T14:26:41.442Z,22.78
2018-04-27T14:29:10.464Z,22.31
2018-04-27T14:31:38.722Z,22.97
2018-04-27T14:34:07.734Z,22.83
2018-04-27T14:36:35.985Z,23.10
2018-04-27T14:39:05.022Z,23.16
2018-04-27T14:41:33.318Z,22.66
2018-04-27T14:44:01.577Z,22.73
2018-04-27T14:46:29.848Z,22.96
2018-04-27T14:48:58.117Z,22.06
2018-04-27T14:51:26.367Z,23.05
2018-04-27T14:53:55.378Z,21.19
2018-04-27T14:56:23.634Z,21.91
2018-04-27T14:58:52.646Z,21.69
2018-04-27T15:01:20.900Z,21.22
2018-04-27T15:03:49.152Z,21.20
2018-04-27T15:06:17.410Z,21.44
2018-04-27T15:08:45.655Z,21.54
2018-04-27T15:11:13.906Z,21.11
2018-04-27T15:13:42.158Z,21.10
2018-04-27T15:16:11.170Z,21.78
2018-04-27T15:18:40.190Z,21.77
2018-04-27T15:21:08.443Z,21.01
2018-04-27T15:23:36.720Z,22.56
2018-04-27T15:26:04.970Z,22.31
2018-04-27T15:28:33.225Z,23.27
2018-04-27T15:31:01.478Z,23.25
2018-04-27T15:33:29.733Z,23.70
2018-04-27T15:35:57.986Z,23.05
2018-04-27T15:38:26.244Z,21.37
2018-04-27T15:40:54.498Z,21.40
2018-04-27T15:43:22.759Z,22.24
2018-04-27T15:45:51.002Z,22.93
2018-04-27T15:48:19.290Z,22.15
2018-04-27T15:50:47.543Z,22.50
2018-04-27T15:53:16.653Z,21.87
2018-04-27T15:55:44.900Z,21.13
2018-04-27T15:58:13.914Z,22.38
2018-04-27T16:00:42.171Z,21.20
2018-04-27T16:03:11.193Z,22.07
2018-04-27T16:05:39.452Z,21.49
2018-04-27T16:08:08.473Z,21.18
2018-04-27T16:10:36.721Z,22.04
2018-04-27T16:16:08.629Z,22.15
2018-04-27T16:18:36.878Z,21.96
2018-04-27T16:21:05.133Z,22.33
2018-04-27T16:23:34.152Z,23.30
2018-04-27T16:26:02.406Z,23.15
2018-04-27T16:28:31.421Z,23.37
2018-04-27T16:30:59.686Z,23.23
2018-04-27T16:33:28.732Z,22.04
2018-04-27T16:35:56.983Z,22.98
2018-04-27T16:38:25.235Z,22.43
2018-04-27T16:40:54.261Z,22.69
2018-04-27T16:43:22.517Z,22.95
2018-04-27T16:45:50.771Z,22.12
2018-04-27T16:48:19.790Z,22.41
2018-04-27T16:50:48.046Z,23.41
2018-04-27T16:53:17.065Z,23.54
2018-04-27T16:55:45.315Z,22.65
2018-04-27T16:58:14.333Z,21.98
2018-04-27T17:00:42.587Z,22.57
2018-04-27T17:03:10.845Z,23.60
2018-04-27T17:05:39.109Z,22.65
2018-04-27T17:08:07.432Z,22.36
2018-04-27T17:10:35.684Z,22.22
2018-04-27T17:13:04.702Z,22.25
2018-04-27T17:15:32.960Z,22.35
2018-04-27T17:18:01.216Z,22.37
2018-04-27T17:20:30.233Z,21.49
2018-04-27T17:22:58.494Z,20.43
2018-04-27T17:25:27.510Z,20.39
2018-04-27T17:27:55.772Z,20.11
2018-04-27T17:30:24.786Z,19.98
2018-04-27T17:32:53.057Z,19.98
2018-04-27T17:35:21.315Z,20.05
2018-04-27T17:37:50.325Z,20.11
2018-04-27T17:40:18.597Z,19.70
2018-04-27T17:42:46.844Z,19.42
2018-04-27T17:45:15.862Z,19.34
2018-04-27T17:47:44.113Z,19.42
2018-04-27T17:50:13.139Z,19.31
2018-04-27T17:52:41.390Z,19.20
2018-04-27T17:55:10.416Z,19.08
2018-04-27T17:57:38.667Z,18.97
2018-04-27T18:00:07.698Z,18.97
2018-04-27T18:02:35.945Z,18.79
2018-04-27T18:05:04.197Z,18.74
2018-04-27T18:07:33.285Z,18.73
2018-04-27T18:10:01.480Z,18.63
2018-04-27T18:12:30.502Z,18.43
2018-04-27T18:14:58.866Z,18.29
2018-04-27T18:17:27.120Z,18.15
2018-04-27T18:19:56.144Z,17.74
2018-04-27T18:22:24.394Z,17.48
2018-04-27T18:24:53.416Z,17.32
2018-04-27T18:27:21.671Z,17.18
2018-04-27T18:29:49.924Z,16.95
2018-04-27T18:32:18.947Z,16.71
2018-04-27T18:34:47.194Z,16.58
2018-04-27T18:37:16.208Z,16.43
2018-04-27T18:39:44.464Z,16.29
2018-04-27T18:42:13.510Z,16.36
2018-04-27T18:44:41.762Z,16.09
2018-04-27T18:47:10.012Z,16.07
2018-04-27T18:49:39.031Z,16.18
2018-04-27T18:52:07.292Z,16.20
2018-04-27T18:54:35.545Z,16.07
2018-04-27T18:57:04.636Z,16.04
2018-04-27T18:59:33.667Z,15.88
2018-04-27T19:02:01.930Z,15.73
2018-04-27T19:04:30.245Z,15.61
2018-04-27T19:06:58.502Z,15.60
2018-04-27T19:09:26.758Z,15.63
2018-04-27T19:11:55.017Z,15.53
2018-04-27T19:14:24.108Z,15.42
2018-04-27T19:16:52.325Z,15.34
2018-04-27T19:19:20.586Z,15.24
2018-04-27T19:21:49.452Z,15.18
2018-04-27T19:24:18.478Z,15.15
2018-04-27T19:26:46.744Z,15.08
2018-04-27T19:29:14.993Z,15.03
2018-04-27T19:31:44.029Z,15.05
2018-04-27T19:34:12.276Z,14.98
2018-04-27T19:36:40.543Z,14.98
2018-04-27T19:39:09.566Z,14.94
2018-04-27T19:41:37.829Z,14.88
2018-04-27T19:44:06.108Z,14.76
2018-04-27T19:46:34.436Z,14.66
2018-04-27T19:49:02.704Z,14.54
2018-04-27T19:51:30.955Z,14.48
2018-04-27T19:53:59.221Z,14.51
2018-04-27T19:56:27.476Z,14.88
2018-04-27T19:58:55.767Z,14.77
2018-04-27T20:01:24.758Z,14.59
2018-04-27T20:03:53.025Z,15.02
2018-04-27T20:06:21.285Z,14.78
2018-04-27T20:08:50.316Z,14.42
2018-04-27T20:11:18.648Z,14.40
2018-04-27T20:13:46.874Z,14.48
2018-04-27T20:19:16.910Z,14.53
2018-04-27T20:21:45.162Z,14.72
2018-04-27T20:24:13.422Z,14.87
2018-04-27T20:26:42.445Z,14.98
2018-04-27T20:29:10.708Z,14.80
2018-04-27T20:31:39.000Z,14.93
2018-04-27T20:34:07.297Z,14.64
2018-04-27T20:36:35.547Z,14.94
2018-04-27T20:39:03.814Z,14.91
2018-04-27T20:41:32.085Z,14.91
2018-04-27T20:44:00.360Z,15.09
2018-04-27T20:46:28.633Z,15.22
2018-04-27T20:48:56.887Z,15.12
2018-04-27T20:51:25.146Z,14.94
2018-04-27T20:54:00.683Z,15.01
2018-04-27T20:56:30.397Z,15.30
2018-04-27T20:58:58.652Z,14.69
2018-04-27T21:01:26.919Z,14.83
2018-04-27T21:03:55.172Z,15.02
2018-04-27T21:06:23.430Z,15.06
2018-04-27T21:08:51.685Z,15.26
2018-04-27T21:11:19.945Z,15.19
2018-04-27T21:13:48.202Z,14.82
2018-04-27T21:16:16.471Z,14.48
2018-04-27T21:18:44.720Z,14.37
2018-04-27T21:21:12.989Z,14.44
2018-04-27T21:23:42.004Z,14.75
2018-04-27T21:26:11.665Z,14.61
2018-04-27T21:28:39.917Z,14.62
2018-04-27T21:31:08.173Z,14.76
2018-04-27T21:33:48.758Z,14.39
2018-04-27T21:36:17.024Z,14.51
2018-04-27T21:38:48.956Z,15.05
2018-04-27T21:44:42.510Z,14.34
2018-04-27T21:47:16.180Z,14.47
2018-04-27T21:49:45.152Z,14.69
2018-04-27T21:52:15.143Z,14.87
2018-04-27T21:54:43.402Z,14.96
2018-04-27T21:57:16.456Z,14.98
2018-04-27T22:02:59.371Z,15.31
2018-04-27T22:05:33.339Z,15.20
2018-04-27T22:08:02.480Z,15.39
2018-04-27T22:10:31.253Z,15.38
2018-04-27T22:12:59.721Z,15.30
2018-04-27T22:15:30.748Z,15.22
2018-04-27T22:18:01.651Z,15.15
2018-04-27T22:23:33.437Z,15.21
2018-04-27T22:29:00.433Z,15.00
2018-04-27T22:31:29.450Z,15.05
2018-04-27T22:34:09.222Z,14.95
2018-04-27T22:36:40.181Z,14.80
2018-04-27T22:43:03.173Z,14.60
2018-04-27T22:45:36.082Z,14.49
2018-04-27T22:48:21.737Z,14.43
2018-04-27T22:50:55.526Z,14.43
2018-04-27T22:53:24.377Z,14.39
2018-04-27T22:55:52.633Z,14.34
2018-04-27T22:58:20.895Z,14.37
2018-04-27T23:01:04.143Z,14.43
2018-04-27T23:03:34.841Z,14.43
2018-04-27T23:06:03.788Z,14.38
2018-04-27T23:08:32.042Z,14.45
2018-04-27T23:11:12.071Z,14.49
2018-04-27T23:13:43.814Z,14.45
2018-04-27T23:16:12.078Z,14.42
2018-04-27T23:18:43.203Z,14.41
2018-04-27T23:21:26.166Z,14.13
2018-04-27T23:23:55.190Z,13.47
2018-04-27T23:26:23.453Z,13.68
2018-04-27T23:28:52.483Z,13.46
2018-04-27T23:31:20.738Z,13.47
2018-04-27T23:33:48.993Z,13.62
2018-04-27T23:36:18.034Z,13.62
2018-04-27T23:38:46.289Z,13.63
2018-04-27T23:41:14.547Z,13.58
2018-04-27T23:43:42.799Z,13.43
2018-04-27T23:46:11.113Z,13.51
2018-04-27T23:48:40.092Z,13.54
2018-04-27T23:51:08.346Z,13.47
2018-04-27T23:53:38.085Z,13.46
2018-04-27T23:56:07.878Z,13.52
2018-04-27T23:58:37.497Z,13.54
